Piner, Kentucky
Current Conditions -  °F | °C
As of 9:52 PM on Wednesday 26 Nov 2014 (Local Time) from KCVG Reporting Station
Overcast Overcast  
Wind Chill: 25°   Ceiling: 12000
Heat Index: 32°   Visibility: 10mi
Dew Point: 24°   Wind: 8mph
Humidity: 73%   Direction: 20°NNE
Pressure: 30.05"   Gusts: NA
Location:  38.8354°N, 84.5143°W
Report Text: KCVG 270252Z 02007KT 10SM BKN120 OVC160 00/M04 A3005 RMK AO2 SLP183 T00001044 53008
Loading
Personal Weather Stations






























Interactive Weather Map New forecast layout! Learn more

10-Day Weather Forecast

Advertisements
Track Severe Weather on mobile